Time;durP1;ratioP1;P1;durP2;ratioP2;P2;SDS_P1;SDS_P2;PMS_P1;PMS_P2;Temp;Humidity;BMP_temperature;BMP_pressure;BME280_temperature;BME280_humidity;BME280_pressure;Samples;Min_cycle;Max_cycle;Signal;HPM_P1;HPM_P2
2021/10/22 00:00:58;;;;;;;18.60;2.25;;;;;;;-141.50;100.00;63355.56;4946940;28;20074;-80
2021/10/22 00:03:26;;;;;;;12.35;1.80;;;;;;;-141.50;100.00;63355.56;4977945;28;20046;-80
2021/10/22 00:05:52;;;;;;;13.10;1.88;;;;;;;-141.50;100.00;63355.56;4971597;28;20074;-81
2021/10/22 00:08:19;;;;;;;20.80;2.13;;;;;;;-141.50;100.00;63355.56;4946581;28;20367;-79
2021/10/22 00:10:46;;;;;;;23.75;2.15;;;;;;;-141.50;100.00;63355.56;4963195;28;20047;-81
2021/10/22 00:13:12;;;;;;;16.98;1.92;;;;;;;-141.50;100.00;63355.56;4964872;28;20074;-81
2021/10/22 00:15:39;;;;;;;15.50;1.75;;;;;;;-141.50;100.00;63355.56;4967330;28;20491;-80
2021/10/22 00:18:06;;;;;;;16.90;2.10;;;;;;;-141.50;100.00;63355.56;4947175;28;20440;-80
2021/10/22 00:20:32;;;;;;;12.52;1.98;;;;;;;-141.50;100.00;63355.56;4962906;28;20098;-80
2021/10/22 00:22:59;;;;;;;13.88;2.08;;;;;;;-141.50;100.00;63355.56;4962028;28;20408;-81
2021/10/22 00:25:26;;;;;;;21.65;1.92;;;;;;;-141.50;100.00;63355.56;4947333;28;20391;-81
2021/10/22 00:27:53;;;;;;;14.30;2.42;;;;;;;-141.50;100.00;63355.56;4962839;28;20061;-80
2021/10/22 00:30:20;;;;;;;16.85;1.80;;;;;;;-141.50;100.00;63355.56;4980475;28;20046;-80
2021/10/22 00:32:46;;;;;;;19.02;2.10;;;;;;;-141.50;100.00;63355.56;4964702;28;20054;-80
2021/10/22 00:35:13;;;;;;;11.82;2.00;;;;;;;-141.50;100.00;63355.56;4964273;28;20122;-81
2021/10/22 00:37:40;;;;;;;11.75;1.92;;;;;;;-141.50;100.00;63355.56;4963445;28;20050;-80
2021/10/22 00:40:07;;;;;;;16.13;1.88;;;;;;;-141.50;100.00;63355.56;4947906;28;20059;-80
2021/10/22 00:42:34;;;;;;;16.58;2.20;;;;;;;-141.50;100.00;63355.56;4947816;28;20046;-82
2021/10/22 00:45:02;;;;;;;20.15;2.30;;;;;;;-141.50;100.00;63355.56;4944572;29;20043;-81
2021/10/22 00:47:29;;;;;;;13.65;2.05;;;;;;;-141.50;100.00;63355.56;4945537;29;20035;-82
2021/10/22 00:49:55;;;;;;;15.48;2.67;;;;;;;-141.50;100.00;63355.56;4930120;29;20062;-83
2021/10/22 00:52:27;;;;;;;14.63;1.58;;;;;;;-141.50;100.00;63355.56;4964211;28;20043;-81
2021/10/22 00:54:55;;;;;;;18.25;1.98;;;;;;;-141.50;100.00;63355.56;4947237;29;20047;-81
2021/10/22 00:57:21;;;;;;;12.57;2.20;;;;;;;-141.50;100.00;63355.56;4963933;28;20043;-83
2021/10/22 00:59:48;;;;;;;16.83;2.03;;;;;;;-141.50;100.00;63355.56;4964726;29;20058;-81
2021/10/22 01:02:15;;;;;;;15.98;2.22;;;;;;;-141.50;100.00;63355.56;4950782;29;20047;-81
2021/10/22 01:04:42;;;;;;;14.88;1.98;;;;;;;-141.50;100.00;63355.56;4954445;29;20093;-82
2021/10/22 01:07:13;;;;;;;16.85;1.67;;;;;;;-141.50;100.00;63355.56;4956705;29;20069;-82
2021/10/22 01:09:43;;;;;;;16.25;1.80;;;;;;;-141.50;100.00;63355.56;4953524;28;20513;-81
2021/10/22 01:12:11;;;;;;;14.90;1.70;;;;;;;-141.50;100.00;63355.56;4944589;29;20281;-81
2021/10/22 01:14:38;;;;;;;18.65;2.85;;;;;;;-141.50;100.00;63355.56;4944684;29;20055;-81
2021/10/22 01:17:05;;;;;;;21.83;2.00;;;;;;;-141.50;100.00;63355.56;4960983;28;20053;-81
2021/10/22 01:19:32;;;;;;;15.73;2.20;;;;;;;-141.50;100.00;63355.56;4962897;28;20432;-80
2021/10/22 01:21:59;;;;;;;17.92;2.00;;;;;;;-141.50;100.00;63355.56;4962394;29;20074;-80
2021/10/22 01:24:26;;;;;;;19.98;1.80;;;;;;;-141.50;100.00;63355.56;4962621;28;20370;-81
2021/10/22 01:26:52;;;;;;;23.98;2.83;;;;;;;-141.50;100.00;63355.56;4946173;29;20051;-81
2021/10/22 01:29:20;;;;;;;14.00;2.88;;;;;;;-141.50;100.00;63355.56;4946281;29;20051;-81
2021/10/22 01:31:49;;;;;;;11.73;2.10;;;;;;;-141.50;100.00;63355.56;4958405;28;20191;-80
2021/10/22 01:34:16;;;;;;;20.85;1.83;;;;;;;-141.50;100.00;63355.56;4960647;28;20055;-80
2021/10/22 01:36:43;;;;;;;8.88;1.88;;;;;;;-141.50;100.00;63355.56;4942929;29;20416;-82
2021/10/22 01:39:09;;;;;;;10.35;1.77;;;;;;;-141.50;100.00;63355.56;4942379;29;20059;-81
2021/10/22 01:41:36;;;;;;;18.05;1.98;;;;;;;-141.50;100.00;63355.56;4942609;29;20051;-80
2021/10/22 01:44:06;;;;;;;15.13;1.80;;;;;;;-141.50;100.00;63355.56;4940903;29;20047;-81
2021/10/22 01:46:33;;;;;;;14.77;1.80;;;;;;;-141.50;100.00;63355.56;4958990;28;20054;-82
2021/10/22 01:49:00;;;;;;;14.38;1.55;;;;;;;-141.50;100.00;63355.56;4925714;29;20168;-80
2021/10/22 01:51:27;;;;;;;12.20;1.90;;;;;;;-141.50;100.00;63355.56;4957778;29;20035;-81
2021/10/22 01:53:55;;;;;;;20.15;1.95;;;;;;;-141.50;100.00;63355.56;4938921;29;20039;-81
2021/10/22 01:56:22;;;;;;;13.13;1.70;;;;;;;-141.50;100.00;63355.56;4937872;29;20055;-81
2021/10/22 01:58:48;;;;;;;12.00;2.03;;;;;;;-141.50;100.00;63355.56;4941554;29;20043;-80
2021/10/22 02:01:15;;;;;;;11.85;1.95;;;;;;;-141.50;100.00;63355.56;4940882;29;20217;-80
2021/10/22 02:03:42;;;;;;;10.48;1.58;;;;;;;-141.50;100.00;63355.56;4957060;29;20098;-81
2021/10/22 02:06:08;;;;;;;12.15;2.50;;;;;;;-141.50;100.00;63355.56;4939924;29;20082;-80
2021/10/22 02:08:35;;;;;;;14.18;2.10;;;;;;;-141.50;100.00;63355.56;4939397;29;20043;-78
2021/10/22 02:11:02;;;;;;;16.95;2.00;;;;;;;-141.50;100.00;63355.56;4954960;28;20516;-79
2021/10/22 02:13:29;;;;;;;7.68;1.60;;;;;;;-141.50;100.00;63355.56;4937354;29;20051;-79
2021/10/22 02:15:56;;;;;;;7.28;1.65;;;;;;;-141.50;100.00;63355.56;4954008;28;20558;-80
2021/10/22 02:18:23;;;;;;;13.13;1.95;;;;;;;-141.50;100.00;63355.56;4942830;29;20047;-80
2021/10/22 02:20:50;;;;;;;13.10;2.50;;;;;;;-141.50;100.00;63355.56;4942137;29;20046;-79
2021/10/22 02:23:17;;;;;;;13.15;1.88;;;;;;;-141.50;100.00;63355.56;4957671;28;20133;-81
2021/10/22 02:25:45;;;;;;;8.27;1.85;;;;;;;-141.50;100.00;63355.56;4955450;28;20043;-80
2021/10/22 02:28:12;;;;;;;15.38;2.10;;;;;;;-141.50;100.00;63355.56;4937894;29;20134;-80
2021/10/22 02:30:42;;;;;;;16.23;2.13;;;;;;;-141.50;100.00;63355.56;4938102;29;20062;-80
2021/10/22 02:33:10;;;;;;;9.43;2.13;;;;;;;-141.50;100.00;63355.56;4938766;29;20479;-80
2021/10/22 02:35:37;;;;;;;9.75;2.25;;;;;;;-141.50;100.00;63355.56;4939756;29;20047;-81
2021/10/22 02:38:04;;;;;;;9.93;2.25;;;;;;;-141.50;100.00;63355.56;4923604;29;20047;-81
2021/10/22 02:40:31;;;;;;;21.52;2.05;;;;;;;-141.50;100.00;63355.56;4957035;28;20047;-81
2021/10/22 02:42:57;;;;;;;16.70;1.92;;;;;;;-141.50;100.00;63355.56;4954334;28;20063;-80
2021/10/22 02:45:24;;;;;;;14.52;1.77;;;;;;;-141.50;100.00;63355.56;4938651;29;20155;-79
2021/10/22 02:47:51;;;;;;;14.80;1.73;;;;;;;-141.50;100.00;63355.56;4957189;28;20039;-80
2021/10/22 02:50:18;;;;;;;16.30;1.90;;;;;;;-141.50;100.00;63355.56;4940949;29;20550;-81
2021/10/22 02:52:45;;;;;;;14.57;2.22;;;;;;;-141.50;100.00;63355.56;4941363;29;20055;-80
2021/10/22 02:55:11;;;;;;;18.08;2.25;;;;;;;-141.50;100.00;63355.56;4941488;29;20424;-82
2021/10/22 02:57:38;;;;;;;10.68;2.00;;;;;;;-141.50;100.00;63355.56;4925002;29;20054;-80
2021/10/22 03:00:06;;;;;;;15.20;1.92;;;;;;;-141.50;100.00;63355.56;4939511;29;20055;-80
2021/10/22 03:02:33;;;;;;;12.82;2.00;;;;;;;-141.50;100.00;63355.56;4939924;29;20474;-81
2021/10/22 03:05:00;;;;;;;18.48;2.38;;;;;;;-141.50;100.00;63355.56;4939611;29;20063;-82
2021/10/22 03:07:26;;;;;;;14.60;2.00;;;;;;;-141.50;100.00;63355.56;4941842;29;20156;-81
2021/10/22 03:09:53;;;;;;;23.15;2.50;;;;;;;-141.50;100.00;63355.56;4960919;29;20115;-81
2021/10/22 03:12:19;;;;;;;25.38;2.97;;;;;;;-141.50;100.00;63355.56;4943328;29;20513;-81
2021/10/22 03:14:46;;;;;;;13.48;2.20;;;;;;;-141.50;100.00;63355.56;4936062;29;20463;-82
2021/10/22 03:17:13;;;;;;;20.17;2.72;;;;;;;-141.50;100.00;63355.56;4951305;28;20126;-81
2021/10/22 03:19:40;;;;;;;12.40;2.20;;;;;;;-141.50;100.00;63355.56;4936078;29;20107;-80
2021/10/22 03:22:06;;;;;;;14.02;2.10;;;;;;;-141.50;100.00;63355.56;4936206;29;20062;-80
2021/10/22 03:24:33;;;;;;;14.75;1.90;;;;;;;-141.50;100.00;63355.56;4920862;29;20098;-81
2021/10/22 03:27:00;;;;;;;14.50;2.33;;;;;;;-141.50;100.00;63355.56;4938159;29;20043;-80
2021/10/22 03:29:27;;;;;;;12.38;1.90;;;;;;;-141.50;100.00;63355.56;4956081;28;20047;-80
2021/10/22 03:31:53;;;;;;;17.52;2.35;;;;;;;-141.50;100.00;63355.56;4958713;28;20067;-81
2021/10/22 03:34:20;;;;;;;16.83;2.03;;;;;;;-141.50;100.00;63355.56;4958655;28;20058;-81
2021/10/22 03:36:46;;;;;;;15.52;2.30;;;;;;;-141.50;100.00;63355.56;4941733;29;20173;-82
2021/10/22 03:39:13;;;;;;;14.88;2.08;;;;;;;-141.50;100.00;63355.56;4960857;28;20442;-81
2021/10/22 03:41:39;;;;;;;16.33;2.17;;;;;;;-141.50;100.00;63355.56;4944761;29;20166;-82
2021/10/22 03:44:06;;;;;;;14.98;2.58;;;;;;;-141.50;100.00;63355.56;4946460;29;20467;-82
2021/10/22 03:46:33;;;;;;;23.80;2.53;;;;;;;-141.50;100.00;63355.56;4964508;28;20227;-81
2021/10/22 03:48:59;;;;;;;24.90;2.72;;;;;;;-141.50;100.00;63355.56;4964930;28;20110;-80
2021/10/22 03:51:26;;;;;;;11.00;1.90;;;;;;;-141.50;100.00;63355.56;4957930;28;20035;-82
2021/10/22 03:53:53;;;;;;;16.83;1.92;;;;;;;-141.50;100.00;63355.56;4955474;29;20043;-80
2021/10/22 03:56:20;;;;;;;17.10;2.10;;;;;;;-141.50;100.00;63355.56;4956295;28;20111;-80
2021/10/22 03:58:48;;;;;;;15.02;2.30;;;;;;;-141.50;100.00;63355.56;4949489;29;20055;-80
2021/10/22 04:01:14;;;;;;;17.13;2.08;;;;;;;-141.50;100.00;63355.56;4951571;28;20052;-82
2021/10/22 04:03:41;;;;;;;17.08;2.28;;;;;;;-141.50;100.00;63355.56;4956025;23;20054;-78
2021/10/22 04:06:08;;;;;;;14.27;2.40;;;;;;;-141.50;100.00;63355.56;4969001;28;20050;-77
2021/10/22 04:08:34;;;;;;;15.13;2.30;;;;;;;-141.50;100.00;63355.56;4955848;28;20483;-78
2021/10/22 04:11:01;;;;;;;11.68;2.00;;;;;;;-141.50;100.00;63355.56;4972487;28;20061;-77
2021/10/22 04:13:28;;;;;;;15.30;2.53;;;;;;;-141.50;100.00;63355.56;4972204;28;20541;-77
2021/10/22 04:15:55;;;;;;;22.38;2.75;;;;;;;-141.50;100.00;63355.56;4954592;28;20067;-78
2021/10/22 04:18:21;;;;;;;16.42;2.30;;;;;;;-141.50;100.00;63355.56;4972247;28;20435;-78
2021/10/22 04:20:48;;;;;;;16.73;2.67;;;;;;;-141.50;100.00;63355.56;4954481;28;20051;-77
2021/10/22 04:23:14;;;;;;;24.17;2.22;;;;;;;-141.50;100.00;63355.56;4955917;28;20467;-78
2021/10/22 04:25:41;;;;;;;20.95;2.30;;;;;;;-141.50;100.00;63355.56;4955389;28;20051;-76
2021/10/22 04:28:09;;;;;;;21.05;2.42;;;;;;;-141.50;100.00;63355.56;4939020;28;20468;-76
2021/10/22 04:30:36;;;;;;;16.67;2.78;;;;;;;-141.50;100.00;63355.56;4972023;28;20389;-77
2021/10/22 04:33:03;;;;;;;14.60;2.50;;;;;;;-141.50;100.00;63355.56;4970836;28;20062;-77
2021/10/22 04:35:31;;;;;;;19.77;2.30;;;;;;;-141.50;100.00;63355.56;4940231;28;20043;-77
2021/10/22 04:40:33;;;;;;;16.05;2.83;;;;;;;-141.50;100.00;63355.56;4971896;28;20488;-76
2021/10/22 04:43:02;;;;;;;17.40;2.53;;;;;;;-141.50;100.00;63355.56;4971481;28;20042;-76
2021/10/22 04:45:31;;;;;;;15.20;2.78;;;;;;;-141.50;100.00;63355.56;4968919;28;20663;-75
2021/10/22 04:47:59;;;;;;;15.05;2.33;;;;;;;-141.50;100.00;63355.56;4971475;28;20054;-76
2021/10/22 04:50:29;;;;;;;19.92;2.92;;;;;;;-141.50;100.00;63355.56;4970685;28;20147;-76
2021/10/22 04:52:56;;;;;;;18.17;2.50;;;;;;;-141.50;100.00;63355.56;4953797;28;20062;-76
2021/10/22 04:55:28;;;;;;;12.45;2.47;;;;;;;-141.50;100.00;63355.56;4971624;28;20050;-76
2021/10/22 04:57:54;;;;;;;13.93;2.13;;;;;;;-141.50;100.00;63355.56;4971517;28;20051;-76
2021/10/22 05:00:21;;;;;;;23.00;2.75;;;;;;;-141.50;100.00;63355.56;4970946;28;20491;-76
2021/10/22 05:02:48;;;;;;;22.35;2.88;;;;;;;-141.50;100.00;63355.56;4971495;28;20142;-78
2021/10/22 05:05:15;;;;;;;14.82;2.40;;;;;;;-141.50;100.00;63355.56;4956670;28;20046;-77
2021/10/22 05:07:42;;;;;;;16.63;3.38;;;;;;;-141.50;100.00;63355.56;4990779;28;20046;-77
2021/10/22 05:10:10;;;;;;;12.73;2.38;;;;;;;-141.50;100.00;63355.56;4955921;28;20043;-77
2021/10/22 05:12:37;;;;;;;16.02;2.90;;;;;;;-141.50;100.00;63355.56;4953681;28;20054;-77
2021/10/22 05:15:05;;;;;;;13.75;2.38;;;;;;;-141.50;100.00;63355.56;4971163;28;20051;-78
2021/10/22 05:17:34;;;;;;;18.17;2.83;;;;;;;-141.50;100.00;63355.56;4971238;28;20463;-78
2021/10/22 05:20:04;;;;;;;13.48;2.28;;;;;;;-141.50;100.00;63355.56;4954176;28;20574;-78
2021/10/22 05:22:30;;;;;;;13.25;2.38;;;;;;;-141.50;100.00;63355.56;4970102;28;20054;-78
2021/10/22 05:24:57;;;;;;;20.30;2.38;;;;;;;-141.50;100.00;63355.56;4972056;28;20038;-77
2021/10/22 05:27:23;;;;;;;15.43;2.65;;;;;;;-141.50;100.00;63355.56;4968286;28;20050;-78
2021/10/22 05:29:50;;;;;;;15.93;3.17;;;;;;;-141.50;100.00;63355.56;4953424;28;20050;-77
2021/10/22 05:32:17;;;;;;;19.83;3.28;;;;;;;-141.50;100.00;63355.56;4953403;28;20492;-77
2021/10/22 05:34:43;;;;;;;16.75;2.60;;;;;;;-141.50;100.00;63355.56;4970918;28;20051;-77
2021/10/22 05:37:10;;;;;;;13.23;2.63;;;;;;;-141.50;100.00;63355.56;4952145;28;20047;-76
2021/10/22 05:39:38;;;;;;;16.02;2.42;;;;;;;-141.50;100.00;63355.56;4954398;28;20384;-76
2021/10/22 05:42:07;;;;;;;15.52;2.97;;;;;;;-141.50;100.00;63355.56;4953775;28;20054;-78
2021/10/22 05:44:33;;;;;;;16.90;2.30;;;;;;;-141.50;100.00;63355.56;4970213;28;20051;-76
2021/10/22 05:47:00;;;;;;;12.25;2.58;;;;;;;-141.50;100.00;63355.56;4950516;28;20098;-75
2021/10/22 05:49:27;;;;;;;19.05;2.38;;;;;;;-141.50;100.00;63355.56;4953130;28;20439;-76
2021/10/22 05:51:54;;;;;;;16.58;2.70;;;;;;;-141.50;100.00;63355.56;4952156;28;20435;-77
2021/10/22 05:54:21;;;;;;;19.23;2.80;;;;;;;-141.50;100.00;63355.56;4970978;28;20050;-76
2021/10/22 05:56:49;;;;;;;13.90;2.65;;;;;;;-141.50;100.00;63355.56;4952762;28;20086;-76
2021/10/22 05:59:16;;;;;;;21.48;2.83;;;;;;;-141.50;100.00;63355.56;4970276;28;20056;-77
2021/10/22 06:01:43;;;;;;;20.00;2.75;;;;;;;-141.50;100.00;63355.56;4953094;28;20117;-77
2021/10/22 06:04:10;;;;;;;21.23;2.83;;;;;;;-141.50;100.00;63355.56;4952055;28;20064;-76
2021/10/22 06:06:36;;;;;;;20.90;3.47;;;;;;;-141.50;100.00;63355.56;4969409;28;20102;-76
2021/10/22 06:09:03;;;;;;;15.88;2.92;;;;;;;-141.50;100.00;63355.56;4952554;28;20054;-76
2021/10/22 06:11:31;;;;;;;16.02;2.67;;;;;;;-141.50;100.00;63355.56;4937996;28;20057;-76
2021/10/22 06:13:57;;;;;;;23.40;3.30;;;;;;;-141.50;100.00;63355.56;4970089;28;20054;-76
2021/10/22 06:16:24;;;;;;;15.55;2.90;;;;;;;-141.50;100.00;63355.56;4969669;28;20074;-77
2021/10/22 06:18:52;;;;;;;18.45;2.67;;;;;;;-141.50;100.00;63355.56;4970428;28;20039;-77
2021/10/22 06:23:54;;;;;;;15.98;3.03;;;;;;;-141.50;100.00;63355.56;4953241;28;20050;-76
2021/10/22 06:26:23;;;;;;;13.90;2.80;;;;;;;-141.50;100.00;63355.56;4970352;28;20101;-77
2021/10/22 06:28:51;;;;;;;12.43;2.60;;;;;;;-141.50;100.00;63355.56;4970033;28;20532;-77
2021/10/22 06:31:18;;;;;;;14.48;2.92;;;;;;;-141.50;100.00;63355.56;4969732;28;20055;-77
2021/10/22 06:33:45;;;;;;;20.90;3.15;;;;;;;-141.50;100.00;63355.56;4969934;28;20047;-77
2021/10/22 06:36:12;;;;;;;14.63;2.70;;;;;;;-141.50;100.00;63355.56;4968260;28;20043;-76
2021/10/22 06:38:39;;;;;;;12.43;2.60;;;;;;;-141.50;100.00;63355.56;4971377;28;20046;-76
2021/10/22 06:41:09;;;;;;;13.18;2.25;;;;;;;-141.50;100.00;63355.56;4971180;28;20082;-76
2021/10/22 06:43:40;;;;;;;16.30;2.80;;;;;;;-141.50;100.00;63355.56;4956590;28;20043;-76
2021/10/22 06:46:09;;;;;;;15.02;2.42;;;;;;;-141.50;100.00;63355.56;4971209;28;20047;-76
2021/10/22 06:48:40;;;;;;;13.63;2.70;;;;;;;-141.50;100.00;63355.56;4970923;28;20089;-76
2021/10/22 06:51:10;;;;;;;18.67;2.85;;;;;;;-141.50;100.00;63355.56;4936033;28;20348;-76
2021/10/22 06:53:37;;;;;;;16.40;2.80;;;;;;;-141.50;100.00;63355.56;4970340;28;20051;-76
2021/10/22 06:56:05;;;;;;;16.17;2.95;;;;;;;-141.50;100.00;63355.56;4967467;28;20514;-76
2021/10/22 06:58:32;;;;;;;21.75;2.92;;;;;;;-141.50;100.00;63355.56;4969567;28;20046;-77
2021/10/22 07:00:59;;;;;;;14.10;2.60;;;;;;;-141.50;100.00;63355.56;4969757;28;20571;-76
2021/10/22 07:03:28;;;;;;;12.00;2.40;;;;;;;-141.50;100.00;63355.56;4969349;28;20447;-76
2021/10/22 07:08:26;;;;;;;11.60;2.70;;;;;;;-141.50;100.00;63355.56;4970913;28;20057;-77
2021/10/22 07:10:53;;;;;;;9.52;3.35;;;;;;;-141.50;100.00;63355.56;4973887;28;20051;-76
2021/10/22 07:13:23;;;;;;;15.25;2.72;;;;;;;-141.50;100.00;63355.56;4955804;28;20495;-77
2021/10/22 07:15:50;;;;;;;15.82;2.70;;;;;;;-141.50;100.00;63355.56;4972983;28;20047;-76
2021/10/22 07:18:17;;;;;;;13.60;2.50;;;;;;;-141.50;100.00;63355.56;4953732;28;20138;-77
2021/10/22 07:20:43;;;;;;;13.80;2.80;;;;;;;-141.50;100.00;63355.56;4938837;28;20102;-77
2021/10/22 07:23:11;;;;;;;15.77;3.22;;;;;;;-141.50;100.00;63355.56;4955918;28;20055;-77
2021/10/22 07:25:40;;;;;;;15.25;2.60;;;;;;;-141.50;100.00;63355.56;4940373;28;20043;-77
2021/10/22 07:28:16;;;;;;;17.65;2.58;;;;;;;-141.50;100.00;63355.56;4973176;28;20047;-75
2021/10/22 07:30:46;;;;;;;17.88;3.17;;;;;;;-141.50;100.00;63355.56;4972986;28;20066;-76
2021/10/22 07:33:14;;;;;;;16.48;2.40;;;;;;;-141.50;100.00;63355.56;4955878;28;20085;-77
2021/10/22 07:35:41;;;;;;;27.08;3.05;;;;;;;-141.50;100.00;63355.56;4971664;28;20051;-75
2021/10/22 07:38:11;;;;;;;19.33;2.80;;;;;;;-141.50;100.00;63355.56;4953472;28;20057;-76
2021/10/22 07:40:45;;;;;;;11.15;2.33;;;;;;;-141.50;100.00;63355.56;4955900;28;20050;-77
2021/10/22 07:43:17;;;;;;;12.48;2.70;;;;;;;-141.50;100.00;63355.56;4972537;28;20043;-75
2021/10/22 07:45:47;;;;;;;12.88;2.63;;;;;;;-141.50;100.00;63355.56;4972344;28;20050;-76
2021/10/22 07:48:14;;;;;;;12.90;2.85;;;;;;;-141.50;100.00;63355.56;4955527;28;20095;-78
2021/10/22 07:50:41;;;;;;;14.13;2.55;;;;;;;-141.50;100.00;63355.56;4954570;28;20042;-77
2021/10/22 07:53:07;;;;;;;19.90;2.53;;;;;;;-141.50;100.00;63355.56;4939011;28;20062;-77
2021/10/22 07:55:36;;;;;;;16.80;2.60;;;;;;;-141.50;100.00;63355.56;4955819;28;20055;-78
2021/10/22 07:58:03;;;;;;;11.25;2.22;;;;;;;-141.50;100.00;63355.56;4971304;28;20043;-77
2021/10/22 08:00:29;;;;;;;14.88;2.38;;;;;;;-141.50;100.00;63355.56;4954244;28;20038;-77
2021/10/22 08:02:56;;;;;;;9.65;2.50;;;;;;;-141.50;100.00;63355.56;4955074;28;20042;-76
2021/10/22 08:05:23;;;;;;;15.43;2.85;;;;;;;-141.50;100.00;63355.56;4971495;28;20129;-76
2021/10/22 08:07:50;;;;;;;15.68;2.70;;;;;;;-141.50;100.00;63355.56;4971740;28;20047;-76
2021/10/22 08:10:17;;;;;;;11.93;2.70;;;;;;;-141.50;100.00;63355.56;4972710;28;20049;-75
2021/10/22 08:12:47;;;;;;;13.27;2.67;;;;;;;-141.50;100.00;63355.56;4954864;28;20141;-77
2021/10/22 08:15:31;;;;;;;17.35;2.67;;;;;;;-141.50;100.00;63355.56;4941181;28;20053;-76
2021/10/22 08:17:58;;;;;;;11.00;2.00;;;;;;;-141.50;100.00;63355.56;4969431;28;20417;-77
2021/10/22 08:20:24;;;;;;;11.05;2.10;;;;;;;-141.50;100.00;63355.56;4970288;28;20047;-76
2021/10/22 08:22:52;;;;;;;9.10;2.22;;;;;;;-141.50;100.00;63355.56;4938104;28;20062;-77
2021/10/22 08:25:21;;;;;;;17.02;2.85;;;;;;;-141.50;100.00;63355.56;4955345;28;20082;-77
2021/10/22 08:27:49;;;;;;;10.15;1.90;;;;;;;-141.50;100.00;63355.56;4959654;28;20046;-75
2021/10/22 08:30:20;;;;;;;14.45;2.78;;;;;;;-141.50;100.00;63355.56;4960808;28;20503;-75
2021/10/22 08:32:51;;;;;;;8.98;2.28;;;;;;;-141.50;100.00;63355.56;4975935;28;20051;-76
2021/10/22 08:35:19;;;;;;;14.80;2.65;;;;;;;-141.50;100.00;63355.56;4979100;28;20042;-75
2021/10/22 08:37:47;;;;;;;12.02;1.92;;;;;;;-141.50;100.00;63355.56;4955692;28;20047;-76
2021/10/22 08:40:14;;;;;;;11.00;1.77;;;;;;;-141.50;100.00;63355.56;4963402;28;20043;-76
2021/10/22 08:42:43;;;;;;;12.90;1.83;;;;;;;-141.50;100.00;63355.56;4971781;28;20047;-76
2021/10/22 08:45:11;;;;;;;12.23;2.20;;;;;;;-141.50;100.00;63355.56;4953929;28;20046;-76
2021/10/22 08:47:39;;;;;;;13.95;1.90;;;;;;;-141.50;100.00;63355.56;4971299;28;20039;-75
2021/10/22 08:50:09;;;;;;;13.45;1.92;;;;;;;-141.50;100.00;63355.56;4953273;28;20522;-76
2021/10/22 08:52:37;;;;;;;12.07;2.25;;;;;;;-141.50;100.00;63355.56;4970820;28;20042;-76
2021/10/22 08:55:06;;;;;;;8.73;1.60;;;;;;;-141.50;100.00;63355.56;4972328;28;20046;-77
2021/10/22 08:57:33;;;;;;;9.45;2.15;;;;;;;-141.50;100.00;63355.56;4953846;28;20459;-76
2021/10/22 09:00:02;;;;;;;10.50;1.80;;;;;;;-141.50;100.00;63355.56;4972977;28;20047;-76
2021/10/22 09:02:30;;;;;;;15.15;2.15;;;;;;;-141.50;100.00;63355.56;4978258;28;20295;-77
2021/10/22 09:05:00;;;;;;;11.65;1.98;;;;;;;-141.50;100.00;63355.56;4976828;28;20051;-76
2021/10/22 09:07:48;;;;;;;8.73;1.77;;;;;;;-141.50;100.00;63355.56;4976225;28;20070;-78
2021/10/22 09:10:20;;;;;;;;;;;;;;;-141.50;100.00;63355.56;4954810;28;20550;-76
2021/10/22 09:13:07;;;;;;;10.02;2.25;;;;;;;-141.50;100.00;63355.56;4971331;28;20390;-78
2021/10/22 09:15:40;;;;;;;9.25;2.00;;;;;;;-141.50;100.00;63355.56;4971248;28;20058;-76
2021/10/22 09:18:23;;;;;;;11.82;2.00;;;;;;;-141.50;100.00;63355.56;4953911;28;20046;-76
2021/10/22 09:20:55;;;;;;;9.82;2.10;;;;;;;-141.50;100.00;63355.56;4969943;28;20050;-76
2021/10/22 09:23:33;;;;;;;7.45;1.70;;;;;;;-141.50;100.00;63355.56;4954156;28;20541;-75
2021/10/22 09:26:23;;;;;;;7.20;2.10;;;;;;;-141.50;100.00;63355.56;4971271;28;20511;-76
2021/10/22 09:28:51;;;;;;;6.82;1.73;;;;;;;-141.50;100.00;63355.56;4953363;28;20058;-77
2021/10/22 09:31:20;;;;;;;12.30;2.00;;;;;;;-141.50;100.00;63355.56;4952426;28;20065;-78
2021/10/22 09:33:54;;;;;;;12.18;1.88;;;;;;;-141.50;100.00;63355.56;4953775;28;20043;-77
2021/10/22 09:36:34;;;;;;;13.20;2.10;;;;;;;-141.50;100.00;63355.56;4970268;28;20541;-77
2021/10/22 09:39:08;;;;;;;11.50;1.58;;;;;;;-141.50;100.00;63355.56;4971586;28;20073;-77
2021/10/22 09:41:48;;;;;;;10.27;1.92;;;;;;;-141.50;100.00;63355.56;4938123;28;20051;-76
2021/10/22 09:44:23;;;;;;;12.75;2.05;;;;;;;-141.50;100.00;63355.56;4970010;28;20046;-77
2021/10/22 09:46:51;;;;;;;8.37;1.57;;;;;;;-141.50;100.00;63355.56;4969973;28;20325;-77
2021/10/22 09:49:26;;;;;;;5.85;1.42;;;;;;;-141.50;100.00;63355.56;4934305;28;20527;-78
2021/10/22 09:51:55;;;;;;;7.95;2.08;;;;;;;-141.50;100.00;63355.56;4952373;28;20123;-77
2021/10/22 09:54:28;;;;;;;6.70;1.55;;;;;;;-141.50;100.00;63355.56;4971477;28;20042;-78
2021/10/22 09:56:56;;;;;;;12.18;1.83;;;;;;;-141.50;100.00;63355.56;4970467;28;20050;-77
2021/10/22 09:59:27;;;;;;;4.68;1.33;;;;;;;-141.50;100.00;63355.56;4952132;28;20519;-77
2021/10/22 10:01:55;;;;;;;5.47;1.63;;;;;;;-141.50;100.00;63355.56;4917724;29;20051;-78
2021/10/22 10:04:26;;;;;;;8.02;1.50;;;;;;;-141.50;100.00;63355.56;4961111;23;20060;-78
2021/10/22 10:07:01;;;;;;;10.65;1.73;;;;;;;-141.50;100.00;63355.56;4937378;29;20618;-79
2021/10/22 10:09:28;;;;;;;7.57;1.40;;;;;;;-141.50;100.00;63355.56;4949904;28;20044;-80
2021/10/22 10:11:57;;;;;;;7.30;1.70;;;;;;;-141.50;100.00;63355.56;4932989;29;20071;-80
2021/10/22 10:14:27;;;;;;;10.27;2.13;;;;;;;-141.50;100.00;63355.56;4931831;29;20063;-80
2021/10/22 10:16:55;;;;;;;11.55;1.90;;;;;;;-141.50;100.00;63355.56;4974418;23;20047;-82
2021/10/22 10:19:45;;;;;;;11.25;1.88;;;;;;;-141.50;100.00;63355.56;4968634;28;20043;-84
2021/10/22 10:22:43;;;;;;;7.43;1.45;;;;;;;-141.50;100.00;63355.56;4940287;29;20544;-84
2021/10/22 10:25:26;;;;;;;5.75;1.60;;;;;;;-141.50;100.00;63355.56;4956348;29;20047;-85
2021/10/22 10:28:06;;;;;;;9.10;1.67;;;;;;;-141.50;100.00;63355.56;4926808;29;20545;-84
2021/10/22 10:30:36;;;;;;;6.13;1.30;;;;;;;-141.50;100.00;63355.56;4927694;29;20503;-83
2021/10/22 10:33:29;;;;;;;10.77;1.85;;;;;;;-141.50;100.00;63355.56;4942692;29;20039;-83
2021/10/22 10:36:01;;;;;;;6.13;1.42;;;;;;;-141.50;100.00;63355.56;4938171;29;20047;-84
2021/10/22 10:38:49;;;;;;;10.90;1.60;;;;;;;-141.50;100.00;63355.56;4923280;29;20048;-83
2021/10/22 10:41:18;;;;;;;6.22;1.65;;;;;;;-141.50;100.00;63355.56;4938369;29;20040;-82
2021/10/22 10:44:31;;;;;;;6.18;1.65;;;;;;;-141.50;100.00;63355.56;4922425;29;20047;-84
2021/10/22 10:46:59;;;;;;;7.68;1.73;;;;;;;-141.50;100.00;63355.56;4925251;29;20059;-84
2021/10/22 10:49:54;;;;;;;6.88;1.42;;;;;;;-141.50;100.00;63355.56;4941990;29;20306;-83
2021/10/22 10:53:00;;;;;;;7.57;1.50;;;;;;;-141.50;100.00;63355.56;4936508;29;20067;-85
2021/10/22 10:55:37;;;;;;;7.03;1.83;;;;;;;-141.50;100.00;63355.56;4957258;29;20058;-84
2021/10/22 10:58:08;;;;;;;11.07;1.77;;;;;;;-141.50;100.00;63355.56;4928939;29;20082;-84
2021/10/22 11:01:06;;;;;;;8.25;1.35;;;;;;;-141.50;100.00;63355.56;4943664;29;20046;-83
2021/10/22 11:03:44;;;;;;;6.30;1.20;;;;;;;-141.50;100.00;63355.56;4927535;29;20431;-82
2021/10/22 11:06:43;;;;;;;8.77;1.65;;;;;;;-141.50;100.00;63355.56;4942008;29;20052;-84
2021/10/22 11:09:35;;;;;;;7.57;1.65;;;;;;;-141.50;100.00;63355.56;4927472;29;20051;-83
2021/10/22 11:12:23;;;;;;;4.50;1.38;;;;;;;-141.50;100.00;63355.56;4941322;29;20079;-82
2021/10/22 11:14:52;;;;;;;6.88;1.35;;;;;;;-141.50;100.00;63355.56;4941521;29;20050;-84
2021/10/22 11:17:28;;;;;;;8.15;1.73;;;;;;;-141.50;100.00;63355.56;4940865;29;20048;-83
2021/10/22 11:20:06;;;;;;;11.27;1.85;;;;;;;-141.50;100.00;63355.56;4926980;29;20048;-82